sensor_id;sensor_type;location;lat;lon;timestamp;P1;durP1;ratioP1;P2;durP2;ratioP2
47337;SDS011;33069;51.970;5.892;2023-07-29T00:01:03;34.13;;;24.55;;
47337;SDS011;33069;51.970;5.892;2023-07-29T00:03:49;36.75;;;22.67;;
47337;SDS011;33069;51.970;5.892;2023-07-29T00:06:35;38.08;;;24.27;;
47337;SDS011;33069;51.970;5.892;2023-07-29T00:09:21;34.30;;;24.10;;
47337;SDS011;33069;51.970;5.892;2023-07-29T00:12:07;33.45;;;24.23;;
47337;SDS011;33069;51.970;5.892;2023-07-29T00:14:53;30.55;;;22.23;;
47337;SDS011;33069;51.970;5.892;2023-07-29T00:17:39;30.08;;;20.88;;
47337;SDS011;33069;51.970;5.892;2023-07-29T00:20:25;39.63;;;23.63;;
47337;SDS011;33069;51.970;5.892;2023-07-29T00:23:11;24.02;;;19.50;;
47337;SDS011;33069;51.970;5.892;2023-07-29T00:25:58;30.15;;;20.63;;
47337;SDS011;33069;51.970;5.892;2023-07-29T00:28:44;27.95;;;19.35;;
47337;SDS011;33069;51.970;5.892;2023-07-29T00:31:30;28.02;;;20.02;;
47337;SDS011;33069;51.970;5.892;2023-07-29T00:34:16;36.03;;;25.38;;
47337;SDS011;33069;51.970;5.892;2023-07-29T00:37:04;33.55;;;23.80;;
47337;SDS011;33069;51.970;5.892;2023-07-29T00:39:51;27.67;;;21.50;;
47337;SDS011;33069;51.970;5.892;2023-07-29T00:42:37;30.52;;;21.90;;
47337;SDS011;33069;51.970;5.892;2023-07-29T00:45:23;27.20;;;20.60;;
47337;SDS011;33069;51.970;5.892;2023-07-29T00:48:11;23.48;;;19.95;;
47337;SDS011;33069;51.970;5.892;2023-07-29T00:50:57;25.73;;;19.70;;
47337;SDS011;33069;51.970;5.892;2023-07-29T00:53:43;29.52;;;21.17;;
47337;SDS011;33069;51.970;5.892;2023-07-29T00:56:29;41.53;;;26.77;;
47337;SDS011;33069;51.970;5.892;2023-07-29T00:59:16;35.40;;;24.52;;
47337;SDS011;33069;51.970;5.892;2023-07-29T01:02:02;36.10;;;26.60;;
47337;SDS011;33069;51.970;5.892;2023-07-29T01:04:51;33.35;;;23.92;;
47337;SDS011;33069;51.970;5.892;2023-07-29T01:07:59;29.25;;;21.95;;
47337;SDS011;33069;51.970;5.892;2023-07-29T01:10:58;35.85;;;23.60;;
47337;SDS011;33069;51.970;5.892;2023-07-29T01:13:56;31.40;;;22.40;;
47337;SDS011;33069;51.970;5.892;2023-07-29T01:16:52;28.53;;;21.90;;
47337;SDS011;33069;51.970;5.892;2023-07-29T01:22:46;43.40;;;27.75;;
47337;SDS011;33069;51.970;5.892;2023-07-29T01:25:33;44.83;;;27.27;;
47337;SDS011;33069;51.970;5.892;2023-07-29T01:28:19;40.33;;;25.80;;
47337;SDS011;33069;51.970;5.892;2023-07-29T01:37:36;40.80;;;27.77;;
47337;SDS011;33069;51.970;5.892;2023-07-29T01:40:26;45.10;;;28.67;;
47337;SDS011;33069;51.970;5.892;2023-07-29T01:43:13;47.30;;;29.38;;
47337;SDS011;33069;51.970;5.892;2023-07-29T01:46:00;35.10;;;25.98;;
47337;SDS011;33069;51.970;5.892;2023-07-29T01:48:46;44.47;;;27.92;;
47337;SDS011;33069;51.970;5.892;2023-07-29T01:51:32;31.98;;;23.40;;
47337;SDS011;33069;51.970;5.892;2023-07-29T01:54:18;42.05;;;26.77;;
47337;SDS011;33069;51.970;5.892;2023-07-29T01:57:04;36.10;;;24.08;;
47337;SDS011;33069;51.970;5.892;2023-07-29T01:59:50;30.67;;;22.50;;
47337;SDS011;33069;51.970;5.892;2023-07-29T02:02:36;36.25;;;25.80;;
47337;SDS011;33069;51.970;5.892;2023-07-29T02:05:22;43.95;;;27.48;;
47337;SDS011;33069;51.970;5.892;2023-07-29T02:08:08;35.70;;;25.73;;
47337;SDS011;33069;51.970;5.892;2023-07-29T02:10:54;35.03;;;24.63;;
47337;SDS011;33069;51.970;5.892;2023-07-29T02:13:40;35.80;;;25.85;;
47337;SDS011;33069;51.970;5.892;2023-07-29T02:16:26;35.00;;;26.70;;
47337;SDS011;33069;51.970;5.892;2023-07-29T02:19:12;45.75;;;29.63;;
47337;SDS011;33069;51.970;5.892;2023-07-29T02:21:58;46.58;;;30.67;;
47337;SDS011;33069;51.970;5.892;2023-07-29T02:24:44;29.27;;;23.63;;
47337;SDS011;33069;51.970;5.892;2023-07-29T02:27:30;41.08;;;29.23;;
47337;SDS011;33069;51.970;5.892;2023-07-29T02:30:16;36.70;;;27.52;;
47337;SDS011;33069;51.970;5.892;2023-07-29T02:33:02;36.72;;;25.35;;
47337;SDS011;33069;51.970;5.892;2023-07-29T02:35:48;30.60;;;24.27;;
47337;SDS011;33069;51.970;5.892;2023-07-29T02:38:34;37.05;;;26.42;;
47337;SDS011;33069;51.970;5.892;2023-07-29T02:41:20;41.17;;;26.75;;
47337;SDS011;33069;51.970;5.892;2023-07-29T02:44:06;37.88;;;28.45;;
47337;SDS011;33069;51.970;5.892;2023-07-29T02:46:52;39.67;;;28.98;;
47337;SDS011;33069;51.970;5.892;2023-07-29T02:49:41;34.63;;;26.98;;
47337;SDS011;33069;51.970;5.892;2023-07-29T02:52:27;33.92;;;27.15;;
47337;SDS011;33069;51.970;5.892;2023-07-29T02:55:12;30.45;;;24.45;;
47337;SDS011;33069;51.970;5.892;2023-07-29T02:57:58;34.58;;;26.55;;
47337;SDS011;33069;51.970;5.892;2023-07-29T03:00:44;33.70;;;26.13;;
47337;SDS011;33069;51.970;5.892;2023-07-29T03:03:32;33.85;;;24.13;;
47337;SDS011;33069;51.970;5.892;2023-07-29T03:06:19;35.38;;;22.55;;
47337;SDS011;33069;51.970;5.892;2023-07-29T03:09:05;32.03;;;23.52;;
47337;SDS011;33069;51.970;5.892;2023-07-29T03:11:51;29.40;;;22.55;;
47337;SDS011;33069;51.970;5.892;2023-07-29T03:14:38;30.30;;;22.45;;
47337;SDS011;33069;51.970;5.892;2023-07-29T03:17:24;28.33;;;20.75;;
47337;SDS011;33069;51.970;5.892;2023-07-29T03:20:10;23.42;;;19.85;;
47337;SDS011;33069;51.970;5.892;2023-07-29T03:22:55;26.08;;;19.85;;
47337;SDS011;33069;51.970;5.892;2023-07-29T03:25:41;33.63;;;20.42;;
47337;SDS011;33069;51.970;5.892;2023-07-29T03:28:28;26.02;;;18.70;;
47337;SDS011;33069;51.970;5.892;2023-07-29T03:31:15;24.35;;;16.20;;
47337;SDS011;33069;51.970;5.892;2023-07-29T03:34:01;20.27;;;15.20;;
47337;SDS011;33069;51.970;5.892;2023-07-29T03:36:47;22.42;;;16.63;;
47337;SDS011;33069;51.970;5.892;2023-07-29T03:39:33;19.80;;;14.98;;
47337;SDS011;33069;51.970;5.892;2023-07-29T03:42:19;17.60;;;13.77;;
47337;SDS011;33069;51.970;5.892;2023-07-29T03:45:05;16.55;;;14.20;;
47337;SDS011;33069;51.970;5.892;2023-07-29T03:47:52;19.23;;;13.38;;
47337;SDS011;33069;51.970;5.892;2023-07-29T03:50:38;15.02;;;13.43;;
47337;SDS011;33069;51.970;5.892;2023-07-29T03:53:24;20.48;;;15.57;;
47337;SDS011;33069;51.970;5.892;2023-07-29T03:56:10;20.00;;;15.15;;
47337;SDS011;33069;51.970;5.892;2023-07-29T03:59:03;18.52;;;14.32;;
47337;SDS011;33069;51.970;5.892;2023-07-29T04:01:49;16.55;;;14.82;;
47337;SDS011;33069;51.970;5.892;2023-07-29T04:04:35;16.83;;;14.15;;
47337;SDS011;33069;51.970;5.892;2023-07-29T04:07:21;13.52;;;12.13;;
47337;SDS011;33069;51.970;5.892;2023-07-29T04:10:07;17.63;;;12.95;;
47337;SDS011;33069;51.970;5.892;2023-07-29T04:12:54;14.30;;;12.68;;
47337;SDS011;33069;51.970;5.892;2023-07-29T04:15:40;13.25;;;11.15;;
47337;SDS011;33069;51.970;5.892;2023-07-29T04:18:26;15.25;;;12.20;;
47337;SDS011;33069;51.970;5.892;2023-07-29T04:21:12;13.07;;;11.30;;
47337;SDS011;33069;51.970;5.892;2023-07-29T04:23:58;14.63;;;11.98;;
47337;SDS011;33069;51.970;5.892;2023-07-29T04:26:44;12.65;;;11.00;;
47337;SDS011;33069;51.970;5.892;2023-07-29T04:29:30;12.73;;;10.57;;
47337;SDS011;33069;51.970;5.892;2023-07-29T04:32:16;13.02;;;10.55;;
47337;SDS011;33069;51.970;5.892;2023-07-29T04:35:02;13.55;;;10.93;;
47337;SDS011;33069;51.970;5.892;2023-07-29T04:37:48;11.57;;;10.38;;
47337;SDS011;33069;51.970;5.892;2023-07-29T04:40:34;10.82;;;9.85;;
47337;SDS011;33069;51.970;5.892;2023-07-29T04:43:20;10.63;;;9.63;;
47337;SDS011;33069;51.970;5.892;2023-07-29T04:46:06;10.23;;;9.25;;
47337;SDS011;33069;51.970;5.892;2023-07-29T04:48:56;11.18;;;10.00;;
47337;SDS011;33069;51.970;5.892;2023-07-29T04:51:42;11.18;;;10.02;;
47337;SDS011;33069;51.970;5.892;2023-07-29T04:54:28;11.45;;;9.27;;
47337;SDS011;33069;51.970;5.892;2023-07-29T04:57:14;11.77;;;9.32;;
47337;SDS011;33069;51.970;5.892;2023-07-29T05:00:00;14.15;;;8.93;;
47337;SDS011;33069;51.970;5.892;2023-07-29T05:02:45;9.60;;;8.38;;
47337;SDS011;33069;51.970;5.892;2023-07-29T05:05:32;8.90;;;8.15;;
47337;SDS011;33069;51.970;5.892;2023-07-29T05:08:18;8.50;;;7.70;;
47337;SDS011;33069;51.970;5.892;2023-07-29T05:11:04;10.68;;;8.30;;
47337;SDS011;33069;51.970;5.892;2023-07-29T05:13:50;9.40;;;8.40;;
47337;SDS011;33069;51.970;5.892;2023-07-29T05:16:36;8.35;;;7.55;;
47337;SDS011;33069;51.970;5.892;2023-07-29T05:19:22;8.88;;;7.97;;
47337;SDS011;33069;51.970;5.892;2023-07-29T05:22:08;9.02;;;8.10;;
47337;SDS011;33069;51.970;5.892;2023-07-29T05:24:55;9.27;;;8.48;;
47337;SDS011;33069;51.970;5.892;2023-07-29T05:27:41;8.57;;;7.78;;
47337;SDS011;33069;51.970;5.892;2023-07-29T05:30:27;9.20;;;8.40;;
47337;SDS011;33069;51.970;5.892;2023-07-29T05:33:16;9.40;;;8.27;;
47337;SDS011;33069;51.970;5.892;2023-07-29T05:36:02;9.65;;;8.75;;
47337;SDS011;33069;51.970;5.892;2023-07-29T05:38:48;9.77;;;8.98;;
47337;SDS011;33069;51.970;5.892;2023-07-29T05:41:34;10.85;;;9.90;;
47337;SDS011;33069;51.970;5.892;2023-07-29T05:44:20;13.82;;;10.05;;
47337;SDS011;33069;51.970;5.892;2023-07-29T05:47:06;10.65;;;9.63;;
47337;SDS011;33069;51.970;5.892;2023-07-29T05:49:52;11.57;;;10.20;;
47337;SDS011;33069;51.970;5.892;2023-07-29T05:52:38;10.57;;;9.13;;
47337;SDS011;33069;51.970;5.892;2023-07-29T05:55:24;11.18;;;9.70;;
47337;SDS011;33069;51.970;5.892;2023-07-29T05:58:10;10.63;;;9.73;;
47337;SDS011;33069;51.970;5.892;2023-07-29T06:00:56;12.13;;;10.43;;
47337;SDS011;33069;51.970;5.892;2023-07-29T06:03:43;12.05;;;10.85;;
47337;SDS011;33069;51.970;5.892;2023-07-29T06:06:29;13.02;;;11.70;;
47337;SDS011;33069;51.970;5.892;2023-07-29T06:09:15;14.00;;;12.70;;
47337;SDS011;33069;51.970;5.892;2023-07-29T06:12:01;15.32;;;13.77;;
47337;SDS011;33069;51.970;5.892;2023-07-29T06:14:47;16.20;;;14.00;;
47337;SDS011;33069;51.970;5.892;2023-07-29T06:17:33;15.07;;;13.52;;
47337;SDS011;33069;51.970;5.892;2023-07-29T06:20:19;15.05;;;13.50;;
47337;SDS011;33069;51.970;5.892;2023-07-29T06:23:04;14.90;;;13.45;;
47337;SDS011;33069;51.970;5.892;2023-07-29T06:25:50;15.20;;;13.80;;
47337;SDS011;33069;51.970;5.892;2023-07-29T06:28:36;15.50;;;14.02;;
47337;SDS011;33069;51.970;5.892;2023-07-29T06:31:22;17.15;;;14.60;;
47337;SDS011;33069;51.970;5.892;2023-07-29T06:34:08;16.13;;;14.55;;
47337;SDS011;33069;51.970;5.892;2023-07-29T06:36:54;15.40;;;13.90;;
47337;SDS011;33069;51.970;5.892;2023-07-29T06:39:40;16.30;;;14.70;;
47337;SDS011;33069;51.970;5.892;2023-07-29T06:42:26;16.20;;;14.50;;
47337;SDS011;33069;51.970;5.892;2023-07-29T06:45:12;16.92;;;15.32;;
47337;SDS011;33069;51.970;5.892;2023-07-29T06:47:58;16.65;;;15.05;;
47337;SDS011;33069;51.970;5.892;2023-07-29T06:50:44;16.23;;;14.73;;
47337;SDS011;33069;51.970;5.892;2023-07-29T06:53:30;18.73;;;15.63;;
47337;SDS011;33069;51.970;5.892;2023-07-29T06:56:16;23.85;;;14.82;;
47337;SDS011;33069;51.970;5.892;2023-07-29T06:59:02;15.77;;;14.40;;
47337;SDS011;33069;51.970;5.892;2023-07-29T07:01:48;18.08;;;16.20;;
47337;SDS011;33069;51.970;5.892;2023-07-29T07:04:34;16.55;;;14.95;;
47337;SDS011;33069;51.970;5.892;2023-07-29T07:07:20;17.60;;;16.00;;
47337;SDS011;33069;51.970;5.892;2023-07-29T07:10:06;17.27;;;15.68;;
47337;SDS011;33069;51.970;5.892;2023-07-29T07:12:52;16.15;;;14.55;;
47337;SDS011;33069;51.970;5.892;2023-07-29T07:15:38;17.65;;;15.98;;
47337;SDS011;33069;51.970;5.892;2023-07-29T07:18:24;33.10;;;30.85;;
47337;SDS011;33069;51.970;5.892;2023-07-29T07:21:10;19.98;;;17.15;;
47337;SDS011;33069;51.970;5.892;2023-07-29T07:23:56;19.92;;;18.38;;
47337;SDS011;33069;51.970;5.892;2023-07-29T07:26:42;19.08;;;17.45;;
47337;SDS011;33069;51.970;5.892;2023-07-29T07:29:28;19.98;;;18.15;;
47337;SDS011;33069;51.970;5.892;2023-07-29T07:32:15;19.02;;;17.35;;
47337;SDS011;33069;51.970;5.892;2023-07-29T07:35:01;19.48;;;17.55;;
47337;SDS011;33069;51.970;5.892;2023-07-29T07:37:48;19.33;;;17.63;;
47337;SDS011;33069;51.970;5.892;2023-07-29T07:40:34;18.58;;;17.00;;
47337;SDS011;33069;51.970;5.892;2023-07-29T07:43:20;19.65;;;17.95;;
47337;SDS011;33069;51.970;5.892;2023-07-29T07:46:06;20.15;;;18.48;;
47337;SDS011;33069;51.970;5.892;2023-07-29T07:48:52;21.23;;;19.20;;
47337;SDS011;33069;51.970;5.892;2023-07-29T07:51:38;19.33;;;17.52;;
47337;SDS011;33069;51.970;5.892;2023-07-29T07:54:24;19.35;;;17.52;;
47337;SDS011;33069;51.970;5.892;2023-07-29T07:57:10;20.88;;;18.80;;
47337;SDS011;33069;51.970;5.892;2023-07-29T07:59:56;21.38;;;19.45;;
47337;SDS011;33069;51.970;5.892;2023-07-29T08:02:43;17.38;;;15.95;;
47337;SDS011;33069;51.970;5.892;2023-07-29T08:05:29;20.25;;;18.25;;
47337;SDS011;33069;51.970;5.892;2023-07-29T08:08:15;28.75;;;26.52;;
47337;SDS011;33069;51.970;5.892;2023-07-29T08:11:01;18.38;;;16.73;;
47337;SDS011;33069;51.970;5.892;2023-07-29T08:13:47;17.77;;;16.17;;
47337;SDS011;33069;51.970;5.892;2023-07-29T08:16:33;16.83;;;15.45;;
47337;SDS011;33069;51.970;5.892;2023-07-29T08:19:19;17.08;;;15.60;;
47337;SDS011;33069;51.970;5.892;2023-07-29T08:22:05;18.48;;;17.08;;
47337;SDS011;33069;51.970;5.892;2023-07-29T08:24:51;17.60;;;16.13;;
47337;SDS011;33069;51.970;5.892;2023-07-29T08:27:37;16.58;;;15.27;;
47337;SDS011;33069;51.970;5.892;2023-07-29T08:30:23;16.40;;;15.02;;
47337;SDS011;33069;51.970;5.892;2023-07-29T08:33:09;16.52;;;14.90;;
47337;SDS011;33069;51.970;5.892;2023-07-29T08:35:55;18.00;;;16.00;;
47337;SDS011;33069;51.970;5.892;2023-07-29T08:38:41;16.08;;;14.88;;
47337;SDS011;33069;51.970;5.892;2023-07-29T08:41:29;17.17;;;15.63;;
47337;SDS011;33069;51.970;5.892;2023-07-29T08:44:21;14.93;;;13.77;;
47337;SDS011;33069;51.970;5.892;2023-07-29T08:47:11;15.95;;;14.75;;
47337;SDS011;33069;51.970;5.892;2023-07-29T08:50:01;15.38;;;14.00;;
47337;SDS011;33069;51.970;5.892;2023-07-29T08:52:48;14.93;;;13.63;;
47337;SDS011;33069;51.970;5.892;2023-07-29T08:55:36;13.30;;;12.38;;
47337;SDS011;33069;51.970;5.892;2023-07-29T08:58:23;13.38;;;12.38;;
47337;SDS011;33069;51.970;5.892;2023-07-29T09:01:09;14.27;;;13.05;;
47337;SDS011;33069;51.970;5.892;2023-07-29T09:03:56;14.68;;;13.65;;
47337;SDS011;33069;51.970;5.892;2023-07-29T09:06:43;15.25;;;14.05;;
47337;SDS011;33069;51.970;5.892;2023-07-29T09:09:29;15.13;;;13.77;;
47337;SDS011;33069;51.970;5.892;2023-07-29T09:12:15;14.57;;;13.50;;
47337;SDS011;33069;51.970;5.892;2023-07-29T09:15:01;14.65;;;13.55;;
47337;SDS011;33069;51.970;5.892;2023-07-29T09:17:48;15.35;;;14.25;;
47337;SDS011;33069;51.970;5.892;2023-07-29T09:20:33;14.98;;;13.95;;
47337;SDS011;33069;51.970;5.892;2023-07-29T09:23:20;14.70;;;13.60;;
47337;SDS011;33069;51.970;5.892;2023-07-29T09:26:06;14.68;;;13.43;;
47337;SDS011;33069;51.970;5.892;2023-07-29T09:28:55;15.95;;;14.60;;
47337;SDS011;33069;51.970;5.892;2023-07-29T09:31:42;14.75;;;13.48;;
47337;SDS011;33069;51.970;5.892;2023-07-29T09:34:28;14.32;;;13.30;;
47337;SDS011;33069;51.970;5.892;2023-07-29T09:37:15;14.48;;;13.38;;
47337;SDS011;33069;51.970;5.892;2023-07-29T09:40:02;20.05;;;18.52;;
47337;SDS011;33069;51.970;5.892;2023-07-29T09:42:50;19.80;;;18.05;;
47337;SDS011;33069;51.970;5.892;2023-07-29T09:45:37;14.85;;;13.70;;
47337;SDS011;33069;51.970;5.892;2023-07-29T09:48:23;19.13;;;17.73;;
47337;SDS011;33069;51.970;5.892;2023-07-29T09:51:12;15.05;;;13.95;;
47337;SDS011;33069;51.970;5.892;2023-07-29T09:54:01;15.32;;;14.18;;
47337;SDS011;33069;51.970;5.892;2023-07-29T09:56:48;15.63;;;14.38;;
47337;SDS011;33069;51.970;5.892;2023-07-29T09:59:34;15.88;;;14.77;;
47337;SDS011;33069;51.970;5.892;2023-07-29T10:02:20;15.85;;;14.80;;
47337;SDS011;33069;51.970;5.892;2023-07-29T10:05:07;14.32;;;13.43;;
47337;SDS011;33069;51.970;5.892;2023-07-29T10:07:54;14.77;;;13.77;;
47337;SDS011;33069;51.970;5.892;2023-07-29T10:10:41;16.92;;;15.38;;
47337;SDS011;33069;51.970;5.892;2023-07-29T10:13:28;13.55;;;12.65;;
47337;SDS011;33069;51.970;5.892;2023-07-29T10:16:14;14.60;;;13.30;;
47337;SDS011;33069;51.970;5.892;2023-07-29T10:19:00;15.55;;;14.20;;
47337;SDS011;33069;51.970;5.892;2023-07-29T10:21:46;15.18;;;14.07;;
47337;SDS011;33069;51.970;5.892;2023-07-29T10:24:35;16.23;;;15.23;;
47337;SDS011;33069;51.970;5.892;2023-07-29T10:27:26;17.25;;;16.05;;
47337;SDS011;33069;51.970;5.892;2023-07-29T10:30:13;17.00;;;15.90;;
47337;SDS011;33069;51.970;5.892;2023-07-29T10:33:03;16.50;;;15.38;;
47337;SDS011;33069;51.970;5.892;2023-07-29T10:35:50;16.48;;;15.18;;
47337;SDS011;33069;51.970;5.892;2023-07-29T10:38:38;18.45;;;16.95;;
47337;SDS011;33069;51.970;5.892;2023-07-29T10:41:37;18.48;;;17.17;;
47337;SDS011;33069;51.970;5.892;2023-07-29T10:44:47;19.48;;;18.27;;
47337;SDS011;33069;51.970;5.892;2023-07-29T10:47:37;18.20;;;17.00;;
47337;SDS011;33069;51.970;5.892;2023-07-29T10:50:23;18.60;;;17.33;;
47337;SDS011;33069;51.970;5.892;2023-07-29T10:53:09;19.35;;;17.75;;
47337;SDS011;33069;51.970;5.892;2023-07-29T10:55:55;18.08;;;16.85;;
47337;SDS011;33069;51.970;5.892;2023-07-29T10:58:41;17.38;;;16.17;;
47337;SDS011;33069;51.970;5.892;2023-07-29T11:01:29;18.83;;;17.52;;
47337;SDS011;33069;51.970;5.892;2023-07-29T11:09:58;16.98;;;15.88;;
47337;SDS011;33069;51.970;5.892;2023-07-29T11:12:50;18.13;;;16.83;;
47337;SDS011;33069;51.970;5.892;2023-07-29T11:15:37;18.05;;;16.92;;
47337;SDS011;33069;51.970;5.892;2023-07-29T11:18:28;17.33;;;15.95;;
47337;SDS011;33069;51.970;5.892;2023-07-29T11:21:19;19.60;;;17.83;;
47337;SDS011;33069;51.970;5.892;2023-07-29T11:24:05;23.10;;;21.30;;
47337;SDS011;33069;51.970;5.892;2023-07-29T11:26:54;16.73;;;15.63;;
47337;SDS011;33069;51.970;5.892;2023-07-29T11:29:40;16.27;;;15.23;;
47337;SDS011;33069;51.970;5.892;2023-07-29T11:32:26;18.30;;;16.98;;
47337;SDS011;33069;51.970;5.892;2023-07-29T11:35:13;17.55;;;16.02;;
47337;SDS011;33069;51.970;5.892;2023-07-29T11:38:01;16.77;;;15.70;;
47337;SDS011;33069;51.970;5.892;2023-07-29T11:40:57;18.38;;;16.88;;
47337;SDS011;33069;51.970;5.892;2023-07-29T11:43:45;16.95;;;15.80;;
47337;SDS011;33069;51.970;5.892;2023-07-29T11:46:30;21.00;;;19.70;;
47337;SDS011;33069;51.970;5.892;2023-07-29T11:49:16;22.85;;;21.40;;
47337;SDS011;33069;51.970;5.892;2023-07-29T11:52:02;18.60;;;17.25;;
47337;SDS011;33069;51.970;5.892;2023-07-29T11:54:52;18.42;;;16.58;;
47337;SDS011;33069;51.970;5.892;2023-07-29T11:57:38;23.15;;;21.58;;
47337;SDS011;33069;51.970;5.892;2023-07-29T12:00:25;19.85;;;18.40;;
47337;SDS011;33069;51.970;5.892;2023-07-29T12:03:11;15.63;;;14.27;;
47337;SDS011;33069;51.970;5.892;2023-07-29T12:05:57;15.80;;;14.23;;
47337;SDS011;33069;51.970;5.892;2023-07-29T12:08:43;14.43;;;13.15;;
47337;SDS011;33069;51.970;5.892;2023-07-29T12:11:30;15.13;;;13.93;;
47337;SDS011;33069;51.970;5.892;2023-07-29T12:14:16;13.77;;;12.85;;
47337;SDS011;33069;51.970;5.892;2023-07-29T12:17:04;14.70;;;12.50;;
47337;SDS011;33069;51.970;5.892;2023-07-29T12:19:53;12.90;;;12.00;;
47337;SDS011;33069;51.970;5.892;2023-07-29T12:22:40;12.77;;;11.52;;
47337;SDS011;33069;51.970;5.892;2023-07-29T12:25:26;13.15;;;11.55;;
47337;SDS011;33069;51.970;5.892;2023-07-29T12:28:12;12.73;;;11.63;;
47337;SDS011;33069;51.970;5.892;2023-07-29T12:30:58;11.13;;;10.13;;
47337;SDS011;33069;51.970;5.892;2023-07-29T12:33:44;12.60;;;11.43;;
47337;SDS011;33069;51.970;5.892;2023-07-29T12:36:47;12.32;;;11.07;;
47337;SDS011;33069;51.970;5.892;2023-07-29T12:39:35;11.18;;;10.45;;
47337;SDS011;33069;51.970;5.892;2023-07-29T12:42:26;12.10;;;11.20;;
47337;SDS011;33069;51.970;5.892;2023-07-29T12:45:14;11.23;;;10.32;;
47337;SDS011;33069;51.970;5.892;2023-07-29T12:48:01;11.45;;;10.40;;
47337;SDS011;33069;51.970;5.892;2023-07-29T12:50:47;11.25;;;10.38;;
47337;SDS011;33069;51.970;5.892;2023-07-29T12:53:33;12.13;;;11.10;;
47337;SDS011;33069;51.970;5.892;2023-07-29T12:56:19;11.00;;;10.30;;
47337;SDS011;33069;51.970;5.892;2023-07-29T12:59:05;11.57;;;10.77;;
47337;SDS011;33069;51.970;5.892;2023-07-29T13:01:51;13.10;;;12.02;;
47337;SDS011;33069;51.970;5.892;2023-07-29T13:04:37;13.77;;;12.77;;
47337;SDS011;33069;51.970;5.892;2023-07-29T13:07:23;12.93;;;12.07;;
47337;SDS011;33069;51.970;5.892;2023-07-29T13:10:09;14.20;;;13.10;;
47337;SDS011;33069;51.970;5.892;2023-07-29T13:12:56;14.68;;;13.57;;
47337;SDS011;33069;51.970;5.892;2023-07-29T13:15:42;13.75;;;12.85;;
47337;SDS011;33069;51.970;5.892;2023-07-29T13:18:28;14.38;;;13.38;;
47337;SDS011;33069;51.970;5.892;2023-07-29T13:21:14;16.58;;;15.38;;
47337;SDS011;33069;51.970;5.892;2023-07-29T13:24:00;14.73;;;13.73;;
47337;SDS011;33069;51.970;5.892;2023-07-29T13:26:46;15.20;;;14.20;;
47337;SDS011;33069;51.970;5.892;2023-07-29T13:29:32;15.25;;;14.10;;
47337;SDS011;33069;51.970;5.892;2023-07-29T13:32:18;15.68;;;14.48;;
47337;SDS011;33069;51.970;5.892;2023-07-29T13:35:04;16.15;;;14.88;;
47337;SDS011;33069;51.970;5.892;2023-07-29T13:37:50;14.45;;;13.55;;
47337;SDS011;33069;51.970;5.892;2023-07-29T13:40:36;15.32;;;14.23;;
47337;SDS011;33069;51.970;5.892;2023-07-29T13:43:22;15.32;;;14.32;;
47337;SDS011;33069;51.970;5.892;2023-07-29T13:46:08;16.27;;;15.00;;
47337;SDS011;33069;51.970;5.892;2023-07-29T13:48:54;30.02;;;28.30;;
47337;SDS011;33069;51.970;5.892;2023-07-29T13:51:40;16.10;;;14.98;;
47337;SDS011;33069;51.970;5.892;2023-07-29T13:54:28;14.75;;;13.75;;
47337;SDS011;33069;51.970;5.892;2023-07-29T13:57:14;14.43;;;13.52;;
47337;SDS011;33069;51.970;5.892;2023-07-29T14:00:00;15.23;;;14.05;;
47337;SDS011;33069;51.970;5.892;2023-07-29T14:02:46;15.55;;;14.63;;
47337;SDS011;33069;51.970;5.892;2023-07-29T14:05:32;15.13;;;14.23;;
47337;SDS011;33069;51.970;5.892;2023-07-29T14:08:18;14.40;;;13.57;;
47337;SDS011;33069;51.970;5.892;2023-07-29T14:11:04;18.35;;;17.13;;
47337;SDS011;33069;51.970;5.892;2023-07-29T14:13:50;15.02;;;14.10;;
47337;SDS011;33069;51.970;5.892;2023-07-29T14:16:36;16.50;;;15.20;;
47337;SDS011;33069;51.970;5.892;2023-07-29T14:19:21;14.63;;;13.68;;
47337;SDS011;33069;51.970;5.892;2023-07-29T14:22:08;14.68;;;13.73;;
47337;SDS011;33069;51.970;5.892;2023-07-29T14:24:54;14.95;;;14.00;;
47337;SDS011;33069;51.970;5.892;2023-07-29T14:27:40;17.45;;;16.38;;
47337;SDS011;33069;51.970;5.892;2023-07-29T14:30:26;14.68;;;13.77;;
47337;SDS011;33069;51.970;5.892;2023-07-29T14:33:12;15.43;;;14.52;;
47337;SDS011;33069;51.970;5.892;2023-07-29T14:36:00;16.23;;;15.23;;
47337;SDS011;33069;51.970;5.892;2023-07-29T14:38:46;14.80;;;13.60;;
47337;SDS011;33069;51.970;5.892;2023-07-29T14:41:32;15.27;;;14.38;;
47337;SDS011;33069;51.970;5.892;2023-07-29T14:44:18;15.93;;;15.00;;
47337;SDS011;33069;51.970;5.892;2023-07-29T14:47:04;15.90;;;15.00;;
47337;SDS011;33069;51.970;5.892;2023-07-29T14:49:50;16.42;;;15.43;;
47337;SDS011;33069;51.970;5.892;2023-07-29T14:52:36;16.38;;;15.40;;
47337;SDS011;33069;51.970;5.892;2023-07-29T14:55:22;15.88;;;14.88;;
47337;SDS011;33069;51.970;5.892;2023-07-29T14:58:08;17.27;;;16.10;;
47337;SDS011;33069;51.970;5.892;2023-07-29T15:00:54;15.98;;;14.98;;
47337;SDS011;33069;51.970;5.892;2023-07-29T15:03:40;17.42;;;16.33;;
47337;SDS011;33069;51.970;5.892;2023-07-29T15:06:26;17.30;;;16.20;;
47337;SDS011;33069;51.970;5.892;2023-07-29T15:09:12;18.15;;;17.05;;
47337;SDS011;33069;51.970;5.892;2023-07-29T15:11:58;16.88;;;15.68;;
47337;SDS011;33069;51.970;5.892;2023-07-29T15:14:44;17.20;;;16.10;;
47337;SDS011;33069;51.970;5.892;2023-07-29T15:17:30;18.20;;;17.00;;
47337;SDS011;33069;51.970;5.892;2023-07-29T15:20:16;17.23;;;16.13;;
47337;SDS011;33069;51.970;5.892;2023-07-29T15:23:02;16.88;;;15.88;;
47337;SDS011;33069;51.970;5.892;2023-07-29T15:25:48;15.82;;;14.85;;
47337;SDS011;33069;51.970;5.892;2023-07-29T15:28:35;16.30;;;15.30;;
47337;SDS011;33069;51.970;5.892;2023-07-29T15:31:21;15.40;;;14.50;;
47337;SDS011;33069;51.970;5.892;2023-07-29T15:34:07;16.35;;;15.35;;
47337;SDS011;33069;51.970;5.892;2023-07-29T15:36:53;16.00;;;15.00;;
47337;SDS011;33069;51.970;5.892;2023-07-29T15:39:38;16.98;;;15.98;;
47337;SDS011;33069;51.970;5.892;2023-07-29T15:42:24;16.63;;;15.35;;
47337;SDS011;33069;51.970;5.892;2023-07-29T15:45:10;17.02;;;15.90;;
47337;SDS011;33069;51.970;5.892;2023-07-29T15:47:57;17.00;;;15.90;;
47337;SDS011;33069;51.970;5.892;2023-07-29T15:50:43;17.60;;;16.40;;
47337;SDS011;33069;51.970;5.892;2023-07-29T15:53:29;16.80;;;15.70;;
47337;SDS011;33069;51.970;5.892;2023-07-29T15:56:15;16.52;;;15.20;;
47337;SDS011;33069;51.970;5.892;2023-07-29T15:59:01;16.20;;;15.20;;
47337;SDS011;33069;51.970;5.892;2023-07-29T16:01:48;15.88;;;14.90;;
47337;SDS011;33069;51.970;5.892;2023-07-29T16:04:35;15.82;;;14.82;;
47337;SDS011;33069;51.970;5.892;2023-07-29T16:07:21;16.88;;;15.73;;
47337;SDS011;33069;51.970;5.892;2023-07-29T16:10:08;17.45;;;16.35;;
47337;SDS011;33069;51.970;5.892;2023-07-29T16:12:54;17.23;;;16.02;;
47337;SDS011;33069;51.970;5.892;2023-07-29T16:15:40;16.20;;;15.20;;
47337;SDS011;33069;51.970;5.892;2023-07-29T16:18:26;16.23;;;15.10;;
47337;SDS011;33069;51.970;5.892;2023-07-29T16:21:12;16.00;;;15.00;;
47337;SDS011;33069;51.970;5.892;2023-07-29T16:23:58;16.45;;;15.45;;
47337;SDS011;33069;51.970;5.892;2023-07-29T16:26:44;16.50;;;15.50;;
47337;SDS011;33069;51.970;5.892;2023-07-29T16:29:31;17.90;;;16.50;;
47337;SDS011;33069;51.970;5.892;2023-07-29T16:32:17;18.20;;;16.60;;